Estación Meteorológica Peña el Pijo (Robertgarden) [ 07/20/18 16:44:08 CEST ]

Fecha Hora Presion(HPa) Temp (°C) Humedad % Rocio (°C) Viento ( m/s) Direccion Lluvia 1Hora(mm) Lluvia 24H(mm) LLuvia Total(mm)
2018-Mar-20 01:01:40 998.600 1.3 59 -5.8 0.5 NW   4.66 175.08
2018-Mar-20 02:01:43 998.900 1.3 59 -5.8       4.66 175.08
2018-Mar-20 03:01:40 999.100 0.8 61 -5.9       4.14 175.08
2018-Mar-20 04:03:34 998.300 0.9 61 -5.8       4.14 175.08
2018-Mar-20 05:01:46 998.200 0.9 60 -6.0       4.14 175.08
2018-Mar-20 06:01:40 998.400 0.9 59 -6.2 2.1 WNW   4.14 175.08
2018-Mar-20 07:02:03 998.500 0.7 59 -6.4       4.14 175.08
2018-Mar-20 08:01:48 998.900 1.1 59 -6.0       4.14 175.08
2018-Mar-20 09:01:49 999.400 2.8 57 -4.9       4.14 175.08
2018-Mar-20 10:01:44 1000.500 5.3 53 -3.6 3.7 WNW   4.14 175.08
2018-Mar-20 11:02:12 1001.100 3.6 61 -3.2       4.14 175.08
2018-Mar-20 12:01:53 1001.500 3.2 69 -1.9       4.14 175.08
2018-Mar-20 13:01:48 1001.200 5.9 61 -1.1       4.14 175.08
2018-Mar-20 14:01:46 1001.600 2.1 69 -3.0       4.14 175.08
2018-Mar-20 15:01:50 1001.400 4.5 66 -1.3 2.8 NNW 0.51 4.66 175.60
2018-Mar-20 16:02:14 1001.800 5.3 60 -1.8       4.66 175.60
2018-Mar-20 17:01:51 1002.500 2.9 70 -2.0     0.51 5.18 176.12
2018-Mar-20 18:01:52 1002.600 2.4 69 -2.7       2.07 176.12
2018-Mar-20 19:01:47 1003.600 1.7 73 -2.7       1.03 176.12
2018-Mar-20 20:01:59 1004.000 1.8 74 -2.4       1.03 176.12
2018-Mar-20 21:01:49 1004.500 1.8 73 -2.6       1.03 176.12
2018-Mar-20 22:01:43 1005.200 1.5 73 -2.9       1.03 176.12
2018-Mar-20 23:01:59 1005.500 1.6 75 -2.4       1.03 176.12

Temperatura Máxima:    Temperatura Mínima:
Presión Máxima:1005.500 Hpa    Presión Mínima:998.200 Hpa


Volver